Time;durP1;ratioP1;P1;durP2;ratioP2;P2;SDS_P1;SDS_P2;PMS_P1;PMS_P2;Temp;Humidity;BMP_temperature;BMP_pressure;BME280_temperature;BME280_humidity;BME280_pressure;Samples;Min_cycle;Max_cycle;Signal;HPM_P1;HPM_P2
2022/03/13 00:00:04;;;;;;;3.25;0.88;;;11.40;64.90;;;;;;5109638;28;20016;-81
2022/03/13 00:02:40;;;;;;;1.58;0.68;;;11.30;64.80;;;;;;5108238;28;20128;-78
2022/03/13 00:05:10;;;;;;;3.65;0.90;;;11.30;64.70;;;;;;5108168;28;20454;-80
2022/03/13 00:07:38;;;;;;;1.80;0.80;;;11.30;64.80;;;;;;5098550;28;20049;-80
2022/03/13 00:10:05;;;;;;;1.92;0.90;;;11.30;64.80;;;;;;5106379;28;20564;-78
2022/03/13 00:12:32;;;;;;;1.40;0.68;;;11.20;64.70;;;;;;5108002;28;20036;-79
2022/03/13 00:15:05;;;;;;;1.75;0.80;;;11.30;64.90;;;;;;5107727;28;20050;-78
2022/03/13 00:17:31;;;;;;;1.98;0.80;;;11.20;64.70;;;;;;5106645;28;20027;-79
2022/03/13 00:20:02;;;;;;;4.47;1.00;;;11.20;64.80;;;;;;5106131;28;20027;-75
2022/03/13 00:22:30;;;;;;;2.00;0.70;;;11.20;64.80;;;;;;5106719;28;20063;-76
2022/03/13 00:24:58;;;;;;;2.30;0.65;;;11.20;64.80;;;;;;5107817;27;20056;-74
2022/03/13 00:27:24;;;;;;;2.05;0.55;;;11.20;64.80;;;;;;5107493;28;20089;-79
2022/03/13 00:29:50;;;;;;;3.42;0.75;;;11.20;64.80;;;;;;5106390;28;20493;-82
2022/03/13 00:32:17;;;;;;;3.10;0.90;;;11.30;65.00;;;;;;5107852;28;20023;-78
2022/03/13 00:34:46;;;;;;;3.30;0.80;;;11.20;64.80;;;;;;5106300;28;20046;-76
2022/03/13 00:37:12;;;;;;;2.25;0.98;;;11.20;64.80;;;;;;5107883;28;20114;-77
2022/03/13 00:39:40;;;;;;;1.80;0.85;;;11.20;64.80;;;;;;5108584;28;20088;-78
2022/03/13 00:42:07;;;;;;;3.90;0.95;;;11.20;64.80;;;;;;5113740;28;20030;-77
2022/03/13 00:44:33;;;;;;;3.65;1.27;;;11.20;64.80;;;;;;5113243;28;20024;-77
2022/03/13 00:46:59;;;;;;;2.30;0.85;;;11.20;64.80;;;;;;5108567;28;20397;-78
2022/03/13 00:49:25;;;;;;;3.30;0.93;;;11.20;64.80;;;;;;5112786;28;20026;-79
2022/03/13 00:51:51;;;;;;;3.85;0.93;;;11.20;64.80;;;;;;5112240;28;20485;-79
2022/03/13 00:54:18;;;;;;;2.67;1.52;;;11.20;64.80;;;;;;5112075;28;20039;-79
2022/03/13 00:56:44;;;;;;;2.63;1.10;;;11.20;64.80;;;;;;5110217;28;20032;-79
2022/03/13 00:59:10;;;;;;;2.58;1.08;;;11.20;64.90;;;;;;5111174;28;20035;-78
2022/03/13 01:01:36;;;;;;;3.83;0.90;;;11.20;64.90;;;;;;5112103;28;20027;-79
2022/03/13 01:04:02;;;;;;;3.13;1.35;;;11.20;64.90;;;;;;5111820;28;20481;-79
2022/03/13 01:06:28;;;;;;;4.85;1.52;;;11.20;64.90;;;;;;5110447;28;20031;-79
2022/03/13 01:08:54;;;;;;;3.00;1.92;;;11.20;64.90;;;;;;5109065;28;20027;-79
2022/03/13 01:11:21;;;;;;;2.70;1.13;;;11.20;64.90;;;;;;5109928;28;20406;-81
2022/03/13 01:13:48;;;;;;;4.05;1.27;;;11.20;64.90;;;;;;5111072;28;20085;-80
2022/03/13 01:16:24;;;;;;;2.67;0.82;;;11.30;65.10;;;;;;5109352;28;20111;-79
2022/03/13 01:18:53;;;;;;;4.85;1.20;;;11.30;65.10;;;;;;5110108;28;20445;-80
2022/03/13 01:21:20;;;;;;;2.55;1.00;;;11.30;65.00;;;;;;5110925;28;20036;-79
2022/03/13 01:24:00;;;;;;;2.78;0.80;;;11.20;64.80;;;;;;5110269;27;20463;-78
2022/03/13 01:26:27;;;;;;;3.45;0.73;;;11.30;65.00;;;;;;5104197;28;20032;-79
2022/03/13 01:28:58;;;;;;;6.95;1.00;;;11.30;65.00;;;;;;5109808;28;20104;-79
2022/03/13 01:31:34;;;;;;;3.25;1.00;;;11.30;65.00;;;;;;5109870;28;20051;-77
2022/03/13 01:34:01;;;;;;;3.28;0.88;;;11.30;65.00;;;;;;5110378;28;20136;-77
2022/03/13 01:36:28;;;;;;;2.80;0.90;;;11.30;65.00;;;;;;5110265;28;20027;-78
2022/03/13 01:38:57;;;;;;;3.08;1.52;;;11.30;65.00;;;;;;5109800;28;20031;-78
2022/03/13 01:41:24;;;;;;;2.28;0.98;;;11.30;65.00;;;;;;5110510;28;20461;-76
2022/03/13 01:43:50;;;;;;;2.53;1.00;;;11.30;65.00;;;;;;5109535;28;20272;-77
2022/03/13 01:46:17;;;;;;;4.97;1.15;;;11.40;65.30;;;;;;5110099;27;20058;-77
2022/03/13 01:49:03;;;;;;;2.55;0.95;;;11.40;65.10;;;;;;5108623;28;20031;-77
2022/03/13 01:51:31;;;;;;;3.63;0.98;;;11.40;65.20;;;;;;5109869;28;20028;-77
2022/03/13 01:54:00;;;;;;;4.72;1.05;;;11.30;64.90;;;;;;5109730;28;20482;-78
2022/03/13 01:56:26;;;;;;;1.67;0.63;;;11.40;65.10;;;;;;5110275;28;20112;-77
2022/03/13 01:58:54;;;;;;;3.22;1.00;;;11.40;65.10;;;;;;5108185;28;20032;-77
2022/03/13 02:01:23;;;;;;;3.30;1.08;;;11.30;65.00;;;;;;5108461;28;20042;-78
2022/03/13 02:03:50;;;;;;;5.00;1.10;;;11.30;65.00;;;;;;5098914;28;20077;-77
2022/03/13 02:06:17;;;;;;;6.10;1.25;;;11.30;65.00;;;;;;5109475;28;20042;-78
2022/03/13 02:08:46;;;;;;;2.55;1.80;;;11.40;65.20;;;;;;5109603;28;20035;-78
2022/03/13 02:11:17;;;;;;;3.15;1.00;;;11.30;65.00;;;;;;5109331;28;20038;-78
2022/03/13 02:13:45;;;;;;;4.25;1.10;;;11.30;65.00;;;;;;5107793;28;20027;-75
2022/03/13 02:16:12;;;;;;;5.00;1.50;;;11.30;65.00;;;;;;5108113;28;20035;-78
2022/03/13 02:18:40;;;;;;;6.00;1.30;;;11.30;65.10;;;;;;5109688;28;20433;-78
2022/03/13 02:21:08;;;;;;;6.18;1.05;;;11.30;65.10;;;;;;5109188;28;20127;-77
2022/03/13 02:23:35;;;;;;;4.15;1.20;;;11.30;65.10;;;;;;5108775;28;20051;-80
2022/03/13 02:26:07;;;;;;;3.35;0.85;;;11.30;65.10;;;;;;5107761;28;20042;-78
2022/03/13 02:28:35;;;;;;;3.15;0.98;;;11.30;65.20;;;;;;5109515;28;20119;-81
2022/03/13 02:31:04;;;;;;;3.97;1.50;;;11.30;65.20;;;;;;5109638;28;20032;-80
2022/03/13 02:33:31;;;;;;;2.10;0.95;;;11.30;65.20;;;;;;5109373;28;20047;-79
2022/03/13 02:36:00;;;;;;;5.90;1.38;;;11.40;65.40;;;;;;5109695;28;20088;-78
2022/03/13 02:38:29;;;;;;;3.35;1.17;;;11.30;65.20;;;;;;5110101;28;20047;-82
2022/03/13 02:40:56;;;;;;;2.20;0.98;;;11.30;65.20;;;;;;5108551;28;20114;-81
2022/03/13 02:43:23;;;;;;;4.47;0.80;;;11.40;65.30;;;;;;5099146;28;20040;-81
2022/03/13 02:45:52;;;;;;;3.30;1.05;;;11.40;65.40;;;;;;5118759;22;20027;-79
2022/03/13 02:48:18;;;;;;;4.07;1.30;;;11.40;65.90;;;;;;5054958;28;20674;-79
2022/03/13 02:50:44;;;;;;;3.45;1.00;;;11.40;65.40;;;;;;5051319;28;20040;-78
2022/03/13 02:53:11;;;;;;;4.57;1.63;;;11.30;65.20;;;;;;5051287;28;20392;-79
2022/03/13 02:55:36;;;;;;;3.45;1.02;;;11.40;65.40;;;;;;5051167;28;20025;-79
2022/03/13 02:58:04;;;;;;;3.40;1.25;;;11.30;65.20;;;;;;5068038;28;20040;-78
2022/03/13 03:00:46;;;;;;;5.03;2.13;;;11.40;65.40;;;;;;5073403;28;20153;-79
2022/03/13 03:03:14;;;;;;;2.40;1.10;;;11.30;65.30;;;;;;5073419;28;20478;-78
2022/03/13 03:05:40;;;;;;;5.18;1.45;;;11.30;65.20;;;;;;5073404;28;20122;-79
2022/03/13 03:08:07;;;;;;;3.83;1.70;;;11.30;65.20;;;;;;5052465;28;20025;-78
2022/03/13 03:10:34;;;;;;;3.10;1.20;;;11.30;65.30;;;;;;5067352;28;20029;-78
2022/03/13 03:13:00;;;;;;;3.28;1.40;;;11.30;65.30;;;;;;5043055;28;20025;-79
2022/03/13 03:15:27;;;;;;;2.67;1.10;;;11.30;65.30;;;;;;5051309;28;20029;-79
2022/03/13 03:17:53;;;;;;;3.10;0.98;;;11.30;65.30;;;;;;5051369;28;20036;-78
2022/03/13 03:20:20;;;;;;;5.28;1.38;;;11.30;65.40;;;;;;5051744;28;20041;-79
2022/03/13 03:22:47;;;;;;;2.22;1.20;;;11.30;65.40;;;;;;5067091;28;20029;-79
2022/03/13 03:25:13;;;;;;;2.65;1.05;;;11.30;65.40;;;;;;5053875;28;20060;-78
2022/03/13 03:27:40;;;;;;;4.45;1.55;;;11.30;65.50;;;;;;5053353;28;20033;-78
2022/03/13 03:30:09;;;;;;;3.63;1.35;;;11.30;65.50;;;;;;5053069;28;20040;-78
2022/03/13 03:32:35;;;;;;;3.53;1.25;;;11.20;65.30;;;;;;5053148;28;20029;-79
2022/03/13 03:35:01;;;;;;;3.58;1.33;;;11.30;65.50;;;;;;5052238;28;20047;-79
2022/03/13 03:37:32;;;;;;;4.63;1.20;;;11.20;65.30;;;;;;5053277;28;20025;-78
2022/03/13 03:39:58;;;;;;;4.43;1.05;;;11.30;65.50;;;;;;5051802;28;20515;-78
2022/03/13 03:42:24;;;;;;;6.43;2.40;;;11.30;65.50;;;;;;5064600;28;20026;-78
2022/03/13 03:44:50;;;;;;;3.63;1.35;;;11.20;65.30;;;;;;5029936;28;20068;-79
2022/03/13 03:47:16;;;;;;;3.03;1.45;;;11.20;65.30;;;;;;5030781;28;20366;-79
2022/03/13 03:49:42;;;;;;;2.55;1.15;;;11.30;65.50;;;;;;5029451;28;20029;-79
2022/03/13 03:52:08;;;;;;;1.98;1.17;;;11.20;65.40;;;;;;5030869;28;20037;-78
2022/03/13 03:54:35;;;;;;;4.35;1.25;;;11.30;65.50;;;;;;5030552;28;20042;-76
2022/03/13 03:57:05;;;;;;;6.10;1.40;;;11.20;65.40;;;;;;5030422;28;20030;-79
2022/03/13 03:59:31;;;;;;;4.43;1.50;;;11.20;65.40;;;;;;5021586;28;20396;-78
2022/03/13 04:01:57;;;;;;;3.33;1.02;;;11.20;65.40;;;;;;5030558;28;20184;-79
2022/03/13 04:04:23;;;;;;;4.43;1.55;;;11.20;65.40;;;;;;5030444;28;20500;-77
2022/03/13 04:06:49;;;;;;;9.45;1.52;;;11.20;65.50;;;;;;5062480;28;20052;-79
2022/03/13 04:09:15;;;;;;;3.00;0.93;;;11.20;65.50;;;;;;5030636;28;20061;-79
2022/03/13 04:11:41;;;;;;;5.25;1.52;;;11.20;65.50;;;;;;5030339;28;20021;-79
2022/03/13 04:14:09;;;;;;;3.17;1.42;;;11.20;66.00;;;;;;5030667;28;20049;-78
2022/03/13 04:16:34;;;;;;;3.67;1.50;;;11.20;65.50;;;;;;5065007;28;20029;-78
2022/03/13 04:19:01;;;;;;;5.25;1.83;;;11.10;65.40;;;;;;5033977;28;20033;-78
2022/03/13 04:21:27;;;;;;;3.33;1.25;;;11.20;65.60;;;;;;5034303;28;20029;-78
2022/03/13 04:23:53;;;;;;;4.72;2.65;;;11.10;65.50;;;;;;5066203;28;20030;-79
2022/03/13 04:26:22;;;;;;;6.70;1.50;;;11.10;65.50;;;;;;5065787;28;20076;-78
2022/03/13 04:28:49;;;;;;;4.03;1.63;;;11.10;65.50;;;;;;5033903;28;20028;-78
2022/03/13 04:31:17;;;;;;;3.50;1.38;;;11.10;65.50;;;;;;5033805;28;20087;-78
2022/03/13 04:33:43;;;;;;;5.07;1.58;;;11.10;65.50;;;;;;5065671;28;20037;-78
2022/03/13 04:36:14;;;;;;;4.93;1.60;;;11.10;65.60;;;;;;5034003;28;20033;-78
2022/03/13 04:38:41;;;;;;;3.78;1.60;;;11.10;65.60;;;;;;5024944;28;20028;-77
2022/03/13 04:41:07;;;;;;;4.70;1.77;;;11.10;65.60;;;;;;5065411;28;20033;-77
2022/03/13 04:43:35;;;;;;;4.57;1.48;;;11.10;65.60;;;;;;5033593;28;20025;-77
2022/03/13 04:46:01;;;;;;;3.42;1.10;;;11.00;65.40;;;;;;5033557;28;20042;-79
2022/03/13 04:48:27;;;;;;;7.05;1.50;;;11.00;65.50;;;;;;5033468;28;20512;-78
2022/03/13 04:50:53;;;;;;;7.80;1.70;;;11.00;65.50;;;;;;5033324;28;20025;-79
2022/03/13 04:53:19;;;;;;;5.53;1.23;;;11.00;65.50;;;;;;5033340;28;20033;-79
2022/03/13 04:55:45;;;;;;;7.53;1.90;;;11.00;65.50;;;;;;5033373;28;20510;-80
2022/03/13 04:58:12;;;;;;;5.95;1.58;;;11.00;65.50;;;;;;5033448;28;20419;-79
2022/03/13 05:00:38;;;;;;;7.15;1.70;;;10.90;65.40;;;;;;5033434;28;20034;-79
2022/03/13 05:03:07;;;;;;;6.20;1.92;;;10.90;65.40;;;;;;5033113;28;20121;-78
2022/03/13 05:05:36;;;;;;;7.13;1.63;;;10.90;65.40;;;;;;5033349;28;20089;-79
2022/03/13 05:08:04;;;;;;;5.93;2.00;;;10.90;65.40;;;;;;5032997;28;20083;-79
2022/03/13 05:10:36;;;;;;;7.25;1.50;;;11.00;65.60;;;;;;5033131;28;20021;-78
2022/03/13 05:13:06;;;;;;;5.00;1.42;;;10.90;65.50;;;;;;5031978;28;20037;-79
2022/03/13 05:15:33;;;;;;;5.13;1.60;;;11.00;65.70;;;;;;5033142;28;20106;-77
2022/03/13 05:18:01;;;;;;;5.85;1.75;;;11.00;65.70;;;;;;5056118;28;20376;-77
2022/03/13 05:20:27;;;;;;;5.65;1.33;;;10.90;65.80;;;;;;5032817;28;20061;-77
2022/03/13 05:22:54;;;;;;;5.35;1.63;;;10.90;65.60;;;;;;5031829;28;20511;-77
2022/03/13 05:25:23;;;;;;;4.55;1.50;;;10.90;65.60;;;;;;5031635;28;20036;-78
2022/03/13 05:27:49;;;;;;;6.03;2.35;;;10.90;65.60;;;;;;5032565;28;20032;-79
2022/03/13 05:30:15;;;;;;;7.88;1.75;;;10.90;65.60;;;;;;5031398;28;20563;-78
2022/03/13 05:32:42;;;;;;;6.75;2.35;;;10.90;65.60;;;;;;5031812;28;20061;-78
2022/03/13 05:35:09;;;;;;;5.75;1.73;;;10.90;65.60;;;;;;5033368;28;20050;-79
2022/03/13 05:37:36;;;;;;;4.63;1.40;;;10.90;65.70;;;;;;5033353;28;20033;-78
2022/03/13 05:40:03;;;;;;;7.18;2.00;;;10.90;65.70;;;;;;5031602;28;20034;-79
2022/03/13 05:42:29;;;;;;;5.53;1.52;;;10.80;65.50;;;;;;5032806;28;20076;-79
2022/03/13 05:44:55;;;;;;;5.90;1.65;;;10.90;65.70;;;;;;5031622;28;20489;-79
2022/03/13 05:47:21;;;;;;;6.68;2.15;;;10.90;65.80;;;;;;5031626;28;20179;-79
2022/03/13 05:49:48;;;;;;;7.63;1.60;;;10.80;65.60;;;;;;5028947;28;20078;-80
2022/03/13 05:52:14;;;;;;;4.88;1.67;;;10.80;65.60;;;;;;5029248;28;20025;-79
2022/03/13 05:54:42;;;;;;;7.20;1.88;;;10.80;65.70;;;;;;5021953;28;20038;-79
2022/03/13 05:57:10;;;;;;;9.70;3.80;;;10.80;65.70;;;;;;5044751;28;20033;-78
2022/03/13 05:59:37;;;;;;;10.32;2.33;;;10.80;65.70;;;;;;5046678;28;20029;-79
2022/03/13 06:02:07;;;;;;;5.20;1.80;;;10.80;65.70;;;;;;5048891;28;20479;-79
2022/03/13 06:04:37;;;;;;;7.28;2.70;;;10.80;65.70;;;;;;5048894;28;20618;-78
2022/03/13 06:07:04;;;;;;;11.18;3.75;;;10.80;65.80;;;;;;5064453;28;20029;-78
2022/03/13 06:09:31;;;;;;;7.25;1.95;;;10.80;65.80;;;;;;5063890;28;20040;-78
2022/03/13 06:11:58;;;;;;;5.93;1.55;;;10.80;65.80;;;;;;5063590;28;20029;-79
2022/03/13 06:14:24;;;;;;;6.63;1.65;;;10.80;65.80;;;;;;5049408;28;20044;-79
2022/03/13 06:16:50;;;;;;;7.18;2.47;;;10.80;65.80;;;;;;5051021;28;20031;-79
2022/03/13 06:19:16;;;;;;;7.13;1.90;;;10.80;65.80;;;;;;5050556;28;20029;-79
2022/03/13 06:21:42;;;;;;;8.32;1.80;;;10.80;65.80;;;;;;5050491;28;20060;-79
2022/03/13 06:24:08;;;;;;;7.90;2.55;;;10.80;65.80;;;;;;5049085;28;20056;-79
2022/03/13 06:26:36;;;;;;;10.40;2.10;;;10.80;65.80;;;;;;5041267;28;20036;-79
2022/03/13 06:29:03;;;;;;;9.77;2.58;;;10.80;65.80;;;;;;5048818;28;20670;-78
2022/03/13 06:31:29;;;;;;;5.95;1.98;;;10.80;65.80;;;;;;5048814;28;20021;-77
2022/03/13 06:33:55;;;;;;;6.68;1.80;;;10.80;65.80;;;;;;5041421;28;20139;-77
2022/03/13 06:36:21;;;;;;;5.50;1.92;;;10.80;65.80;;;;;;5033750;28;20061;-78
2022/03/13 06:38:47;;;;;;;7.00;1.90;;;10.80;65.80;;;;;;5038399;28;20025;-76
2022/03/13 06:41:13;;;;;;;6.43;2.20;;;10.80;65.80;;;;;;5041286;28;20087;-76
2022/03/13 06:43:39;;;;;;;5.40;1.73;;;10.80;65.80;;;;;;5036602;28;20035;-76
2022/03/13 06:46:05;;;;;;;7.95;1.63;;;10.80;65.80;;;;;;5032998;28;20334;-77
2022/03/13 06:48:31;;;;;;;12.68;2.58;;;10.80;65.70;;;;;;5036711;28;20650;-76
2022/03/13 06:50:58;;;;;;;12.18;2.72;;;10.80;65.70;;;;;;5036247;28;20057;-79
2022/03/13 06:53:24;;;;;;;9.60;2.00;;;10.80;65.70;;;;;;5038407;28;20072;-79
2022/03/13 06:55:51;;;;;;;7.38;2.28;;;10.90;65.80;;;;;;5036629;28;20022;-79
2022/03/13 06:58:18;;;;;;;10.77;2.00;;;10.90;65.80;;;;;;5034225;28;20027;-78
2022/03/13 07:00:44;;;;;;;9.05;2.13;;;10.90;65.80;;;;;;5046062;28;20033;-79
2022/03/13 07:03:13;;;;;;;5.72;1.70;;;10.90;65.80;;;;;;5047968;28;20109;-79
2022/03/13 07:05:41;;;;;;;7.53;1.95;;;11.00;66.00;;;;;;5047095;28;20449;-79
2022/03/13 07:08:07;;;;;;;8.75;2.42;;;11.00;65.90;;;;;;5047478;28;20435;-81
2022/03/13 07:10:33;;;;;;;9.13;2.45;;;11.00;65.80;;;;;;5047228;28;20456;-81
2022/03/13 07:12:59;;;;;;;4.85;1.40;;;11.00;65.70;;;;;;5047560;28;20031;-77
2022/03/13 07:15:27;;;;;;;6.40;1.77;;;11.10;66.00;;;;;;5047659;28;20036;-79
2022/03/13 07:17:53;;;;;;;7.75;1.75;;;11.20;66.50;;;;;;5048023;28;20035;-85
2022/03/13 07:20:20;;;;;;;9.35;2.33;;;11.30;66.80;;;;;;5039040;28;20043;-81
2022/03/13 07:22:46;;;;;;;8.00;2.60;;;11.30;66.70;;;;;;5033358;28;20026;-78
2022/03/13 07:25:14;;;;;;;8.20;1.75;;;11.50;67.00;;;;;;5046163;28;20535;-83
2022/03/13 07:27:40;;;;;;;6.75;1.80;;;11.50;66.90;;;;;;5040569;28;20029;-82
2022/03/13 07:30:08;;;;;;;9.80;2.25;;;11.50;66.80;;;;;;5027525;28;20029;-80
2022/03/13 07:32:35;;;;;;;7.68;2.30;;;11.50;66.80;;;;;;5047602;28;20025;-88
2022/03/13 07:35:01;;;;;;;8.85;1.90;;;11.60;66.90;;;;;;5045949;28;20055;-80
2022/03/13 07:37:27;;;;;;;7.80;1.95;;;11.70;67.00;;;;;;5042365;28;20070;-82
2022/03/13 07:39:53;;;;;;;7.03;1.77;;;11.70;66.90;;;;;;5028817;28;20161;-83
2022/03/13 07:42:19;;;;;;;6.15;2.30;;;11.70;66.90;;;;;;5046674;28;20511;-82
2022/03/13 07:44:45;;;;;;;9.00;2.55;;;11.70;66.80;;;;;;5035844;28;20033;-84
2022/03/13 07:47:11;;;;;;;7.13;2.42;;;11.80;66.90;;;;;;5032919;28;20053;-80
2022/03/13 07:49:37;;;;;;;10.52;2.10;;;11.80;66.80;;;;;;5047695;28;20029;-81
2022/03/13 07:52:04;;;;;;;8.80;2.38;;;11.90;66.80;;;;;;5049526;28;20325;-81
2022/03/13 07:54:30;;;;;;;10.07;2.97;;;12.00;66.90;;;;;;5044016;28;20044;-86
2022/03/13 07:56:56;;;;;;;10.60;2.97;;;12.10;66.90;;;;;;5032724;28;20535;-83
2022/03/13 07:59:22;;;;;;;10.43;2.20;;;12.10;66.80;;;;;;5039588;28;20030;-85
2022/03/13 08:01:49;;;;;;;7.88;1.92;;;12.20;66.80;;;;;;5026740;28;20022;-88
2022/03/13 08:04:16;;;;;;;8.95;2.47;;;12.30;66.80;;;;;;5032248;28;20421;-82
2022/03/13 08:06:42;;;;;;;8.85;2.38;;;12.40;66.80;;;;;;5032462;28;20025;-89
2022/03/13 08:09:11;;;;;;;11.52;3.03;;;12.50;66.80;;;;;;5046006;28;20112;-90
2022/03/13 08:11:38;;;;;;;11.15;2.78;;;12.60;66.70;;;;;;5053797;28;20338;-91
2022/03/13 08:14:07;;;;;;;8.38;2.22;;;12.70;66.70;;;;;;5053502;28;20048;-89
2022/03/13 08:16:33;;;;;;;10.75;2.00;;;12.80;66.50;;;;;;5052851;28;20072;-87
2022/03/13 08:19:00;;;;;;;6.05;1.98;;;12.90;66.50;;;;;;5045528;28;21101;-91
2022/03/13 08:21:26;;;;;;;10.88;2.33;;;13.10;66.60;;;;;;5055635;28;20027;-92
2022/03/13 08:23:52;;;;;;;11.88;2.85;;;13.20;66.50;;;;;;5053096;28;20472;-91
2022/03/13 08:26:19;;;;;;;9.60;2.08;;;13.30;66.40;;;;;;5052515;28;20030;-92
2022/03/13 08:28:45;;;;;;;7.45;2.00;;;13.40;66.30;;;;;;5051300;28;20021;-84
2022/03/13 08:31:12;;;;;;;10.70;2.88;;;13.60;66.40;;;;;;5040192;28;20120;-80
2022/03/13 08:33:38;;;;;;;9.77;2.80;;;13.70;66.30;;;;;;5048910;28;20040;-83
2022/03/13 08:36:04;;;;;;;8.65;2.03;;;13.80;66.20;;;;;;5049343;28;20032;-79
2022/03/13 08:38:31;;;;;;;16.23;4.07;;;13.90;66.40;;;;;;5050054;28;20029;-78
2022/03/13 08:40:57;;;;;;;11.68;2.50;;;14.10;66.90;;;;;;5050132;28;20377;-78
2022/03/13 08:43:23;;;;;;;12.05;2.50;;;14.20;67.60;;;;;;5042931;28;20044;-80
2022/03/13 08:45:50;;;;;;;10.00;2.53;;;14.40;67.30;;;;;;5033052;28;20044;-89
2022/03/13 08:48:16;;;;;;;8.43;2.42;;;14.60;67.40;;;;;;5036950;28;20028;-90
2022/03/13 08:50:42;;;;;;;5.13;2.10;;;14.80;67.50;;;;;;5050884;28;20051;-88
2022/03/13 08:53:08;;;;;;;7.85;2.40;;;14.90;67.50;;;;;;5049388;28;20090;-85
2022/03/13 08:55:34;;;;;;;7.65;1.70;;;15.00;67.50;;;;;;5032531;28;20029;-85
2022/03/13 08:58:00;;;;;;;8.40;2.60;;;15.20;67.60;;;;;;5050575;28;20518;-87
2022/03/13 09:00:27;;;;;;;9.10;2.50;;;15.30;67.60;;;;;;5050261;28;20061;-85
2022/03/13 09:02:53;;;;;;;9.30;2.38;;;15.40;67.60;;;;;;5028101;28;20746;-82
2022/03/13 09:05:22;;;;;;;8.73;2.83;;;15.50;67.50;;;;;;5029461;28;20029;-86
2022/03/13 09:07:48;;;;;;;12.45;2.30;;;15.60;67.40;;;;;;5036178;28;20025;-87
2022/03/13 09:10:14;;;;;;;12.75;2.78;;;15.70;67.40;;;;;;5048657;28;20029;-88
2022/03/13 09:12:41;;;;;;;10.15;2.80;;;15.80;67.20;;;;;;5047575;28;20021;-86
2022/03/13 09:15:07;;;;;;;9.50;2.97;;;16.00;67.30;;;;;;5048483;28;20040;-83
2022/03/13 09:17:34;;;;;;;20.10;4.47;;;16.00;67.00;;;;;;5050522;28;20049;-94
2022/03/13 09:20:03;;;;;;;18.52;4.35;;;16.10;66.50;;;;;;5059483;28;20044;-91
2022/03/13 09:22:30;;;;;;;20.02;5.20;;;16.10;65.70;;;;;;5054563;28;20539;-89
2022/03/13 09:25:00;;;;;;;12.07;2.92;;;16.10;65.00;;;;;;5052233;28;20458;-78
2022/03/13 09:27:27;;;;;;;17.15;3.75;;;16.00;64.30;;;;;;5047737;28;20021;-82
2022/03/13 09:29:54;;;;;;;16.90;3.85;;;15.90;63.80;;;;;;5048991;28;20032;-78
2022/03/13 09:32:25;;;;;;;15.02;4.03;;;15.90;63.50;;;;;;5047837;28;20489;-80
2022/03/13 09:34:51;;;;;;;20.05;4.20;;;15.80;62.90;;;;;;5049206;28;20511;-80
2022/03/13 09:37:17;;;;;;;13.57;2.72;;;15.80;62.80;;;;;;5031446;28;20329;-80
2022/03/13 09:39:44;;;;;;;20.00;4.80;;;15.80;62.50;;;;;;5047340;28;20056;-83
2022/03/13 09:42:10;;;;;;;16.50;4.55;;;15.80;62.40;;;;;;5048109;28;20114;-84
2022/03/13 09:44:36;;;;;;;19.88;4.05;;;15.80;62.50;;;;;;5049287;28;20044;-81
2022/03/13 09:47:05;;;;;;;22.92;4.35;;;16.00;62.40;;;;;;5049202;28;20347;-80
2022/03/13 09:49:32;;;;;;;20.85;5.72;;;16.00;61.90;;;;;;5051061;28;20075;-83
2022/03/13 09:52:01;;;;;;;14.75;3.35;;;16.10;61.60;;;;;;5050236;28;20190;-85
2022/03/13 09:54:27;;;;;;;11.13;2.88;;;16.10;61.20;;;;;;5051333;28;20113;-86
2022/03/13 09:56:53;;;;;;;14.35;3.97;;;16.10;60.80;;;;;;5050564;28;20051;-87
2022/03/13 09:59:19;;;;;;;26.00;4.20;;;16.10;60.50;;;;;;5049870;28;20124;-86
2022/03/13 10:01:45;;;;;;;15.23;3.67;;;16.10;60.30;;;;;;5049557;28;20137;-83
2022/03/13 10:04:12;;;;;;;17.80;3.75;;;16.10;60.20;;;;;;5054152;28;20033;-82
2022/03/13 10:07:07;;;;;;;15.38;3.70;;;16.10;60.00;;;;;;5041026;28;20032;-85
2022/03/13 10:09:34;;;;;;;15.77;3.97;;;16.20;59.30;;;;;;5040624;28;20040;-84
2022/03/13 10:12:10;;;;;;;18.42;3.97;;;16.20;59.30;;;;;;5046828;28;20033;-83
2022/03/13 10:14:39;;;;;;;9.75;2.90;;;16.20;58.90;;;;;;5047070;28;20467;-86
2022/03/13 10:17:28;;;;;;;17.63;3.28;;;16.20;58.80;;;;;;5046245;28;20036;-88
2022/03/13 10:20:10;;;;;;;14.60;4.35;;;16.20;58.40;;;;;;5044673;28;20040;-88
2022/03/13 10:22:36;;;;;;;19.85;4.25;;;16.10;58.40;;;;;;5036430;28;20020;-85
2022/03/13 10:25:01;;;;;;;16.00;2.88;;;16.10;58.20;;;;;;5046048;28;20029;-84
2022/03/13 10:27:28;;;;;;;21.83;5.35;;;16.10;58.10;;;;;;5044671;28;20033;-84
2022/03/13 10:29:54;;;;;;;11.77;2.70;;;16.10;58.00;;;;;;5038494;28;20113;-81
2022/03/13 10:32:21;;;;;;;13.30;3.30;;;16.10;57.80;;;;;;5045306;28;20124;-81
2022/03/13 10:34:54;;;;;;;9.48;2.25;;;16.20;57.90;;;;;;5043331;28;20135;-84
2022/03/13 10:37:37;;;;;;;8.02;2.28;;;16.30;58.10;;;;;;5047951;28;20056;-85
2022/03/13 10:40:12;;;;;;;15.25;2.70;;;16.60;58.40;;;;;;5027457;28;20064;-86
2022/03/13 10:42:43;;;;;;;13.18;2.47;;;16.80;58.50;;;;;;5038882;28;20029;-87
2022/03/13 10:45:34;;;;;;;11.05;3.42;;;17.00;58.40;;;;;;5058874;28;20017;-84
2022/03/13 10:48:17;;;;;;;10.40;2.15;;;17.30;58.30;;;;;;5042860;28;20547;-84
2022/03/13 10:50:44;;;;;;;;;;;17.50;58.30;;;;;;5041044;28;20041;-82
2022/03/13 10:53:12;;;;;;;10.70;2.00;;;17.60;58.40;;;;;;5061829;28;19909;-83
2022/03/13 10:55:38;;;;;;;10.68;3.10;;;17.80;58.70;;;;;;5046963;28;20047;-83
2022/03/13 10:58:04;;;;;;;9.05;2.88;;;17.90;58.40;;;;;;5044411;28;20108;-82
2022/03/13 11:00:30;;;;;;;8.90;3.25;;;18.10;58.50;;;;;;5044140;28;20380;-83
2022/03/13 11:03:11;;;;;;;11.57;2.28;;;18.20;58.30;;;;;;5042238;28;20123;-81
2022/03/13 11:05:37;;;;;;;7.53;2.15;;;18.40;58.20;;;;;;5051877;28;20292;-80
2022/03/13 11:08:04;;;;;;;11.02;3.10;;;18.50;58.40;;;;;;5060319;28;20096;-81
2022/03/13 11:10:31;;;;;;;10.40;2.75;;;18.60;58.40;;;;;;5060100;28;20056;-81
2022/03/13 11:12:57;;;;;;;11.90;2.85;;;18.70;58.50;;;;;;5050027;28;20033;-82
2022/03/13 11:15:27;;;;;;;11.60;2.47;;;18.90;58.80;;;;;;5038167;28;20029;-79
2022/03/13 11:17:55;;;;;;;6.50;2.53;;;19.00;58.80;;;;;;5050938;28;20456;-78
2022/03/13 11:20:22;;;;;;;9.98;2.65;;;19.10;58.80;;;;;;5048089;28;20033;-78
2022/03/13 11:22:48;;;;;;;9.85;2.83;;;19.20;58.90;;;;;;5039631;28;20026;-79
2022/03/13 11:25:16;;;;;;;7.32;2.47;;;19.40;59.20;;;;;;5079098;28;20025;-78
2022/03/13 11:27:45;;;;;;;8.95;2.13;;;19.50;59.10;;;;;;5051213;28;20490;-80
2022/03/13 11:30:17;;;;;;;11.50;2.50;;;19.50;58.80;;;;;;5029604;28;20028;-81
2022/03/13 11:32:49;;;;;;;9.95;2.65;;;19.60;58.70;;;;;;5046295;28;20510;-81
2022/03/13 11:35:16;;;;;;;8.32;2.05;;;19.70;58.80;;;;;;5047088;28;20657;-82
2022/03/13 11:37:44;;;;;;;10.05;2.70;;;19.80;58.90;;;;;;5047068;28;20053;-81
2022/03/13 11:40:12;;;;;;;6.55;1.75;;;19.90;58.80;;;;;;5045184;28;20551;-80
2022/03/13 11:42:50;;;;;;;5.80;1.58;;;19.90;58.50;;;;;;5044572;28;20428;-79
2022/03/13 11:45:31;;;;;;;9.18;1.95;;;20.10;58.70;;;;;;5038889;28;20112;-81
2022/03/13 11:50:54;;;;;;;10.32;2.38;;;20.20;58.00;;;;;;5043657;28;20117;-81
2022/03/13 11:53:23;;;;;;;11.57;2.40;;;20.20;57.00;;;;;;5042527;28;20487;-80
2022/03/13 11:55:58;;;;;;;11.35;2.90;;;20.00;56.20;;;;;;5025836;28;20041;-83
2022/03/13 11:58:47;;;;;;;10.77;3.35;;;19.90;55.10;;;;;;5042471;28;20313;-79
2022/03/13 12:01:20;;;;;;;16.17;3.22;;;19.70;54.40;;;;;;5039144;28;20020;-78
2022/03/13 12:04:04;;;;;;;9.40;3.58;;;19.50;54.70;;;;;;5037320;28;20438;-79
2022/03/13 12:06:52;;;;;;;13.93;4.20;;;19.40;53.50;;;;;;5042589;28;20417;-78
2022/03/13 12:09:41;;;;;;;12.68;3.67;;;19.30;53.50;;;;;;5040621;28;20028;-78
2022/03/13 12:12:15;;;;;;;14.38;3.65;;;19.20;53.20;;;;;;5046181;28;20373;-81
2022/03/13 12:14:54;;;;;;;8.43;2.47;;;19.10;53.30;;;;;;5048501;28;20037;-80
2022/03/13 12:17:25;;;;;;;13.13;4.95;;;19.00;52.70;;;;;;5044581;28;20116;-78
2022/03/13 12:20:00;;;;;;;13.43;3.83;;;19.00;53.20;;;;;;5046030;28;20431;-82
2022/03/13 12:22:31;;;;;;;12.10;3.90;;;19.00;52.90;;;;;;5044788;28;20032;-78
2022/03/13 12:24:59;;;;;;;18.17;4.18;;;19.00;53.00;;;;;;5045019;28;20357;-78
2022/03/13 12:27:26;;;;;;;12.77;3.30;;;19.00;52.80;;;;;;5028396;28;20069;-78
2022/03/13 12:29:57;;;;;;;15.35;3.35;;;18.90;52.50;;;;;;5028014;28;20131;-78
2022/03/13 12:32:29;;;;;;;15.43;3.67;;;18.90;52.40;;;;;;5044603;28;20029;-78
2022/03/13 12:34:57;;;;;;;17.00;3.40;;;18.90;52.20;;;;;;5045147;28;20511;-79
2022/03/13 12:37:26;;;;;;;12.70;2.65;;;18.90;52.20;;;;;;5045816;28;20040;-79
2022/03/13 12:39:55;;;;;;;13.63;3.35;;;18.80;51.80;;;;;;5049558;28;20033;-78
2022/03/13 12:42:24;;;;;;;11.48;4.57;;;18.80;51.80;;;;;;5047578;28;20048;-79
2022/03/13 12:45:12;;;;;;;14.57;4.22;;;18.80;51.80;;;;;;5031804;28;20029;-77
2022/03/13 12:47:42;;;;;;;11.38;3.38;;;18.80;51.30;;;;;;5049670;28;20059;-79
2022/03/13 12:50:12;;;;;;;11.65;3.67;;;18.80;51.60;;;;;;5045622;28;20384;-77